sensor_id;sensor_type;location;lat;lon;timestamp;pressure;altitude;pressure_sealevel;temperature;humidity
42587;BME280;28216;53.362;-6.288;2023-04-16T00:00:25;101860.56;;;10.77;100.00
42587;BME280;28216;53.362;-6.288;2023-04-16T00:02:52;101867.34;;;10.79;100.00
42587;BME280;28216;53.362;-6.288;2023-04-16T00:05:18;101850.75;;;10.79;100.00
42587;BME280;28216;53.362;-6.288;2023-04-16T00:07:44;101849.25;;;10.76;100.00
42587;BME280;28216;53.362;-6.288;2023-04-16T00:10:09;101853.66;;;10.76;100.00
42587;BME280;28216;53.362;-6.288;2023-04-16T00:12:35;101855.44;;;10.75;100.00
42587;BME280;28216;53.362;-6.288;2023-04-16T00:15:00;101860.81;;;10.74;100.00
42587;BME280;28216;53.362;-6.288;2023-04-16T00:17:26;101861.91;;;10.71;100.00
42587;BME280;28216;53.362;-6.288;2023-04-16T00:19:52;101865.09;;;10.75;100.00
42587;BME280;28216;53.362;-6.288;2023-04-16T00:22:17;101864.97;;;10.76;100.00
42587;BME280;28216;53.362;-6.288;2023-04-16T00:24:43;101863.19;;;10.77;100.00
42587;BME280;28216;53.362;-6.288;2023-04-16T00:27:08;101868.28;;;10.78;100.00
42587;BME280;28216;53.362;-6.288;2023-04-16T00:29:34;101872.44;;;10.81;100.00
42587;BME280;28216;53.362;-6.288;2023-04-16T00:31:59;101868.16;;;10.80;100.00
42587;BME280;28216;53.362;-6.288;2023-04-16T00:34:25;101871.06;;;10.77;100.00
42587;BME280;28216;53.362;-6.288;2023-04-16T00:36:50;101866.63;;;10.77;100.00
42587;BME280;28216;53.362;-6.288;2023-04-16T00:39:16;101866.50;;;10.79;100.00
42587;BME280;28216;53.362;-6.288;2023-04-16T00:41:42;101863.06;;;10.78;100.00
42587;BME280;28216;53.362;-6.288;2023-04-16T00:44:08;101867.47;;;10.78;100.00
42587;BME280;28216;53.362;-6.288;2023-04-16T00:46:35;101865.81;;;10.77;100.00
42587;BME280;28216;53.362;-6.288;2023-04-16T00:49:02;101865.81;;;10.77;100.00
42587;BME280;28216;53.362;-6.288;2023-04-16T00:51:28;101861.25;;;10.79;100.00
42587;BME280;28216;53.362;-6.288;2023-04-16T00:53:56;101856.56;;;10.82;100.00
42587;BME280;28216;53.362;-6.288;2023-04-16T00:56:23;101858.94;;;10.86;100.00
42587;BME280;28216;53.362;-6.288;2023-04-16T00:58:49;101861.41;;;10.87;100.00
42587;BME280;28216;53.362;-6.288;2023-04-16T01:01:15;101858.78;;;10.87;100.00
42587;BME280;28216;53.362;-6.288;2023-04-16T01:03:45;101845.69;;;10.87;100.00
42587;BME280;28216;53.362;-6.288;2023-04-16T01:06:11;101849.25;;;10.86;100.00
42587;BME280;28216;53.362;-6.288;2023-04-16T01:08:37;101850.22;;;10.85;100.00
42587;BME280;28216;53.362;-6.288;2023-04-16T01:11:03;101844.72;;;10.88;100.00
42587;BME280;28216;53.362;-6.288;2023-04-16T01:13:29;101851.06;;;10.86;100.00
42587;BME280;28216;53.362;-6.288;2023-04-16T01:15:55;101845.69;;;10.87;100.00
42587;BME280;28216;53.362;-6.288;2023-04-16T01:18:22;101841.53;;;10.85;100.00
42587;BME280;28216;53.362;-6.288;2023-04-16T01:20:49;101846.78;;;10.85;100.00
42587;BME280;28216;53.362;-6.288;2023-04-16T01:23:15;101844.28;;;10.83;100.00
42587;BME280;28216;53.362;-6.288;2023-04-16T01:25:45;101848.69;;;10.82;100.00
42587;BME280;28216;53.362;-6.288;2023-04-16T01:28:13;101843.44;;;10.82;100.00
42587;BME280;28216;53.362;-6.288;2023-04-16T01:30:39;101842.91;;;10.79;100.00
42587;BME280;28216;53.362;-6.288;2023-04-16T01:33:05;101843.03;;;10.77;100.00
42587;BME280;28216;53.362;-6.288;2023-04-16T01:35:32;101851.59;;;10.79;100.00
42587;BME280;28216;53.362;-6.288;2023-04-16T01:37:57;101844.81;;;10.77;100.00
42587;BME280;28216;53.362;-6.288;2023-04-16T01:40:23;101843.72;;;10.79;100.00
42587;BME280;28216;53.362;-6.288;2023-04-16T01:42:48;101845.38;;;10.80;100.00
42587;BME280;28216;53.362;-6.288;2023-04-16T01:45:15;101848.28;;;10.77;100.00
42587;BME280;28216;53.362;-6.288;2023-04-16T01:47:40;101843.84;;;10.78;100.00
42587;BME280;28216;53.362;-6.288;2023-04-16T01:50:06;101849.09;;;10.78;100.00
42587;BME280;28216;53.362;-6.288;2023-04-16T01:52:32;101848.41;;;10.76;100.00
42587;BME280;28216;53.362;-6.288;2023-04-16T01:54:57;101847.44;;;10.77;100.00
42587;BME280;28216;53.362;-6.288;2023-04-16T01:57:23;101846.47;;;10.78;100.00
42587;BME280;28216;53.362;-6.288;2023-04-16T01:59:48;101851.59;;;10.79;100.00
42587;BME280;28216;53.362;-6.288;2023-04-16T02:02:14;101849.81;;;10.80;100.00
42587;BME280;28216;53.362;-6.288;2023-04-16T02:04:42;101856.56;;;10.82;100.00
42587;BME280;28216;53.362;-6.288;2023-04-16T02:07:08;101850.22;;;10.85;100.00
42587;BME280;28216;53.362;-6.288;2023-04-16T02:09:35;101845.81;;;10.86;100.00
42587;BME280;28216;53.362;-6.288;2023-04-16T02:12:01;101841.53;;;10.85;100.00
42587;BME280;28216;53.362;-6.288;2023-04-16T02:14:27;101847.19;;;10.80;100.00
42587;BME280;28216;53.362;-6.288;2023-04-16T02:16:53;101860.84;;;10.83;100.00
42587;BME280;28216;53.362;-6.288;2023-04-16T02:19:18;101855.59;;;10.83;100.00
42587;BME280;28216;53.362;-6.288;2023-04-16T02:21:44;101860.72;;;10.85;100.00
42587;BME280;28216;53.362;-6.288;2023-04-16T02:24:10;101855.59;;;10.83;100.00
42587;BME280;28216;53.362;-6.288;2023-04-16T02:26:35;101850.22;;;10.85;100.00
42587;BME280;28216;53.362;-6.288;2023-04-16T02:29:01;101852.16;;;10.83;100.00
42587;BME280;28216;53.362;-6.288;2023-04-16T02:31:26;101856.31;;;10.86;100.00
42587;BME280;28216;53.362;-6.288;2023-04-16T02:33:53;101854.66;;;10.85;100.00
42587;BME280;28216;53.362;-6.288;2023-04-16T02:36:18;101850.22;;;10.85;100.00
42587;BME280;28216;53.362;-6.288;2023-04-16T02:38:44;101858.09;;;10.85;100.00
42587;BME280;28216;53.362;-6.288;2023-04-16T02:41:09;101852.84;;;10.85;100.00
42587;BME280;28216;53.362;-6.288;2023-04-16T02:43:35;101848.69;;;10.82;100.00
42587;BME280;28216;53.362;-6.288;2023-04-16T02:46:00;101862.38;;;10.86;100.00
42587;BME280;28216;53.362;-6.288;2023-04-16T02:48:26;101855.59;;;10.83;100.00
42587;BME280;28216;53.362;-6.288;2023-04-16T02:50:51;101857.97;;;10.87;100.00
42587;BME280;28216;53.362;-6.288;2023-04-16T02:53:17;101857.00;;;10.88;100.00
42587;BME280;28216;53.362;-6.288;2023-04-16T02:55:49;101855.34;;;10.87;100.00
42587;BME280;28216;53.362;-6.288;2023-04-16T02:58:16;101855.75;;;10.82;100.00
42587;BME280;28216;53.362;-6.288;2023-04-16T03:00:42;101855.44;;;10.75;100.00
42587;BME280;28216;53.362;-6.288;2023-04-16T03:03:07;101851.59;;;10.79;100.00
42587;BME280;28216;53.362;-6.288;2023-04-16T03:05:33;101848.84;;;10.81;100.00
42587;BME280;28216;53.362;-6.288;2023-04-16T03:07:58;101851.19;;;10.84;100.00
42587;BME280;28216;53.362;-6.288;2023-04-16T03:10:24;101840.97;;;10.81;100.00
42587;BME280;28216;53.362;-6.288;2023-04-16T03:12:49;101848.97;;;10.79;100.00
42587;BME280;28216;53.362;-6.288;2023-04-16T03:15:15;101849.41;;;10.85;100.00
42587;BME280;28216;53.362;-6.288;2023-04-16T03:17:40;101848.00;;;10.80;100.00
42587;BME280;28216;53.362;-6.288;2023-04-16T03:20:06;101847.31;;;10.78;100.00
42587;BME280;28216;53.362;-6.288;2023-04-16T03:22:32;101849.81;;;10.80;100.00
42587;BME280;28216;53.362;-6.288;2023-04-16T03:24:57;101851.31;;;10.82;100.00
42587;BME280;28216;53.362;-6.288;2023-04-16T03:27:23;101848.69;;;10.82;100.00
42587;BME280;28216;53.362;-6.288;2023-04-16T03:29:48;101851.31;;;10.82;100.00
42587;BME280;28216;53.362;-6.288;2023-04-16T03:32:14;101863.47;;;10.83;100.00
42587;BME280;28216;53.362;-6.288;2023-04-16T03:34:39;101856.31;;;10.86;100.00
42587;BME280;28216;53.362;-6.288;2023-04-16T03:37:05;101851.31;;;10.82;100.00
42587;BME280;28216;53.362;-6.288;2023-04-16T03:39:31;101855.22;;;10.88;100.00
42587;BME280;28216;53.362;-6.288;2023-04-16T03:41:57;101857.00;;;10.88;100.00
42587;BME280;28216;53.362;-6.288;2023-04-16T03:44:23;101859.75;;;10.86;100.00
42587;BME280;28216;53.362;-6.288;2023-04-16T03:46:48;101854.50;;;10.86;100.00
42587;BME280;28216;53.362;-6.288;2023-04-16T03:49:14;101857.81;;;10.88;100.00
42587;BME280;28216;53.362;-6.288;2023-04-16T03:51:39;101853.28;;;10.90;100.00
42587;BME280;28216;53.362;-6.288;2023-04-16T03:54:05;101858.78;;;10.87;100.00
42587;BME280;28216;53.362;-6.288;2023-04-16T03:56:30;101857.69;;;10.90;100.00
42587;BME280;28216;53.362;-6.288;2023-04-16T03:58:55;101853.69;;;10.86;100.00
42587;BME280;28216;53.362;-6.288;2023-04-16T04:01:21;101851.75;;;10.88;100.00
42587;BME280;28216;53.362;-6.288;2023-04-16T04:03:46;101848.84;;;10.91;100.00
42587;BME280;28216;53.362;-6.288;2023-04-16T04:06:12;101853.00;;;10.93;100.00
42587;BME280;28216;53.362;-6.288;2023-04-16T04:08:37;101848.59;;;10.94;100.00
42587;BME280;28216;53.362;-6.288;2023-04-16T04:11:03;101835.34;;;10.95;100.00
42587;BME280;28216;53.362;-6.288;2023-04-16T04:13:28;101841.28;;;10.97;100.00
42587;BME280;28216;53.362;-6.288;2023-04-16T04:15:54;101834.38;;;10.96;100.00
42587;BME280;28216;53.362;-6.288;2023-04-16T04:18:19;101834.91;;;10.90;100.00
42587;BME280;28216;53.362;-6.288;2023-04-16T04:20:45;101835.59;;;10.92;100.00
42587;BME280;28216;53.362;-6.288;2023-04-16T04:23:10;101831.19;;;10.93;100.00
42587;BME280;28216;53.362;-6.288;2023-04-16T04:25:36;101830.09;;;10.95;100.00
42587;BME280;28216;53.362;-6.288;2023-04-16T04:28:01;101834.22;;;10.98;100.00
42587;BME280;28216;53.362;-6.288;2023-04-16T04:30:26;101846.38;;;10.99;100.00
42587;BME280;28216;53.362;-6.288;2023-04-16T04:32:52;101839.22;;;11.01;100.00
42587;BME280;28216;53.362;-6.288;2023-04-16T04:35:17;101831.34;;;11.01;100.00
42587;BME280;28216;53.362;-6.288;2023-04-16T04:37:43;101841.56;;;11.04;100.00
42587;BME280;28216;53.362;-6.288;2023-04-16T04:40:08;101839.75;;;11.04;100.00
42587;BME280;28216;53.362;-6.288;2023-04-16T04:42:36;101842.53;;;11.03;100.00
42587;BME280;28216;53.362;-6.288;2023-04-16T04:45:01;101837.97;;;11.05;100.00
42587;BME280;28216;53.362;-6.288;2023-04-16T04:47:27;101848.59;;;11.03;100.00
42587;BME280;28216;53.362;-6.288;2023-04-16T04:49:52;101845.97;;;11.03;100.00
42587;BME280;28216;53.362;-6.288;2023-04-16T04:52:18;101843.34;;;11.03;100.00
42587;BME280;28216;53.362;-6.288;2023-04-16T04:54:45;101847.09;;;11.01;100.00
42587;BME280;28216;53.362;-6.288;2023-04-16T04:57:10;101850.66;;;11.00;100.00
42587;BME280;28216;53.362;-6.288;2023-04-16T04:59:36;101850.53;;;11.01;100.00
42587;BME280;28216;53.362;-6.288;2023-04-16T05:02:01;101853.03;;;11.03;100.00
42587;BME280;28216;53.362;-6.288;2023-04-16T05:04:28;101855.66;;;11.03;100.00
42587;BME280;28216;53.362;-6.288;2023-04-16T05:06:54;101861.72;;;11.03;100.00
42587;BME280;28216;53.362;-6.288;2023-04-16T05:09:20;101860.06;;;11.02;100.00
42587;BME280;28216;53.362;-6.288;2023-04-16T05:11:45;101865.19;;;11.04;100.00
42587;BME280;28216;53.362;-6.288;2023-04-16T05:14:10;101864.34;;;11.03;100.00
42587;BME280;28216;53.362;-6.288;2023-04-16T05:16:36;101866.16;;;11.03;100.00
42587;BME280;28216;53.362;-6.288;2023-04-16T05:19:02;101867.09;;;11.02;100.00
42587;BME280;28216;53.362;-6.288;2023-04-16T05:21:28;101872.50;;;11.00;100.00
42587;BME280;28216;53.362;-6.288;2023-04-16T05:23:53;101872.50;;;11.00;100.00
42587;BME280;28216;53.362;-6.288;2023-04-16T05:26:19;101881.06;;;11.02;100.00
42587;BME280;28216;53.362;-6.288;2023-04-16T05:28:45;101884.38;;;11.04;100.00
42587;BME280;28216;53.362;-6.288;2023-04-16T05:31:10;101876.50;;;11.04;100.00
42587;BME280;28216;53.362;-6.288;2023-04-16T05:33:36;101873.88;;;11.04;100.00
42587;BME280;28216;53.362;-6.288;2023-04-16T05:36:01;101878.16;;;11.05;100.00
42587;BME280;28216;53.362;-6.288;2023-04-16T05:38:26;101871.94;;;11.06;100.00
42587;BME280;28216;53.362;-6.288;2023-04-16T05:40:52;101877.75;;;11.10;100.00
42587;BME280;28216;53.362;-6.288;2023-04-16T05:43:17;101879.28;;;11.12;100.00
42587;BME280;28216;53.362;-6.288;2023-04-16T05:45:43;101871.28;;;11.14;100.00
42587;BME280;28216;53.362;-6.288;2023-04-16T05:48:09;101883.47;;;11.15;100.00
42587;BME280;28216;53.362;-6.288;2023-04-16T05:50:35;101878.78;;;11.19;100.00
42587;BME280;28216;53.362;-6.288;2023-04-16T05:53:05;101886.66;;;11.19;100.00
42587;BME280;28216;53.362;-6.288;2023-04-16T05:55:31;101883.88;;;11.20;100.00
42587;BME280;28216;53.362;-6.288;2023-04-16T05:57:56;101892.59;;;11.21;100.00
42587;BME280;28216;53.362;-6.288;2023-04-16T06:00:22;101896.75;;;11.23;100.00
42587;BME280;28216;53.362;-6.288;2023-04-16T06:02:47;101900.19;;;11.24;100.00
42587;BME280;28216;53.362;-6.288;2023-04-16T06:05:13;101901.16;;;11.23;100.00
42587;BME280;28216;53.362;-6.288;2023-04-16T06:07:39;101904.63;;;11.23;100.00
42587;BME280;28216;53.362;-6.288;2023-04-16T06:10:05;101904.34;;;11.26;100.00
42587;BME280;28216;53.362;-6.288;2023-04-16T06:12:30;101899.09;;;11.26;100.00
42587;BME280;28216;53.362;-6.288;2023-04-16T06:14:56;101897.31;;;11.27;100.00
42587;BME280;28216;53.362;-6.288;2023-04-16T06:17:22;101906.84;;;11.28;100.00
42587;BME280;28216;53.362;-6.288;2023-04-16T06:19:47;101914.44;;;11.31;100.00
42587;BME280;28216;53.362;-6.288;2023-04-16T06:22:13;101911.69;;;11.32;100.00
42587;BME280;28216;53.362;-6.288;2023-04-16T06:24:42;101911.41;;;11.35;100.00
42587;BME280;28216;53.362;-6.288;2023-04-16T06:27:07;101912.09;;;11.37;100.00
42587;BME280;28216;53.362;-6.288;2023-04-16T06:29:33;101911.00;;;11.40;100.00
42587;BME280;28216;53.362;-6.288;2023-04-16T06:31:58;101919.56;;;11.42;100.00
42587;BME280;28216;53.362;-6.288;2023-04-16T06:34:26;101917.63;;;11.44;100.00
42587;BME280;28216;53.362;-6.288;2023-04-16T06:36:52;101916.41;;;11.48;100.00
42587;BME280;28216;53.362;-6.288;2023-04-16T06:41:52;101925.66;;;11.52;100.00
42587;BME280;28216;53.362;-6.288;2023-04-16T06:44:20;101926.34;;;11.54;100.00
42587;BME280;28216;53.362;-6.288;2023-04-16T06:46:46;101927.75;;;11.58;100.00
42587;BME280;28216;53.362;-6.288;2023-04-16T06:49:11;101923.19;;;11.60;100.00
42587;BME280;28216;53.362;-6.288;2023-04-16T06:51:40;101927.47;;;11.61;100.00
42587;BME280;28216;53.362;-6.288;2023-04-16T06:54:09;101929.69;;;11.66;100.00
42587;BME280;28216;53.362;-6.288;2023-04-16T06:56:34;101928.44;;;11.70;100.00
42587;BME280;28216;53.362;-6.288;2023-04-16T07:02:26;101928.03;;;11.74;100.00
42587;BME280;28216;53.362;-6.288;2023-04-16T07:04:51;101935.66;;;11.77;100.00
42587;BME280;28216;53.362;-6.288;2023-04-16T07:07:17;101940.63;;;11.81;100.00
42587;BME280;28216;53.362;-6.288;2023-04-16T07:09:43;101941.19;;;11.84;100.00
42587;BME280;28216;53.362;-6.288;2023-04-16T07:12:08;101939.25;;;11.86;100.00
42587;BME280;28216;53.362;-6.288;2023-04-16T07:14:36;101941.63;;;11.89;100.00
42587;BME280;28216;53.362;-6.288;2023-04-16T07:17:01;101944.00;;;11.92;100.00
42587;BME280;28216;53.362;-6.288;2023-04-16T07:19:27;101949.09;;;11.94;100.00
42587;BME280;28216;53.362;-6.288;2023-04-16T07:21:57;101951.44;;;11.97;100.00
42587;BME280;28216;53.362;-6.288;2023-04-16T07:24:22;101955.59;;;11.99;100.00
42587;BME280;28216;53.362;-6.288;2023-04-16T07:26:48;101960.03;;;11.99;100.00
42587;BME280;28216;53.362;-6.288;2023-04-16T07:29:13;101958.63;;;12.04;100.00
42587;BME280;28216;53.362;-6.288;2023-04-16T07:31:39;101959.88;;;12.10;100.00
42587;BME280;28216;53.362;-6.288;2023-04-16T07:34:04;101957.81;;;12.14;100.00
42587;BME280;28216;53.362;-6.288;2023-04-16T07:36:30;101968.59;;;12.20;100.00
42587;BME280;28216;53.362;-6.288;2023-04-16T07:38:56;101962.22;;;12.23;100.00
42587;BME280;28216;53.362;-6.288;2023-04-16T07:41:22;101968.03;;;12.26;100.00
42587;BME280;28216;53.362;-6.288;2023-04-16T07:43:48;101973.16;;;12.28;100.00
42587;BME280;28216;53.362;-6.288;2023-04-16T07:46:13;101967.47;;;12.32;100.00
42587;BME280;28216;53.362;-6.288;2023-04-16T07:48:39;101965.38;;;12.36;100.00
42587;BME280;28216;53.362;-6.288;2023-04-16T07:51:05;101966.31;;;12.45;100.00
42587;BME280;28216;53.362;-6.288;2023-04-16T07:53:30;101966.16;;;12.56;100.00
42587;BME280;28216;53.362;-6.288;2023-04-16T07:55:56;101964.63;;;12.63;100.00
42587;BME280;28216;53.362;-6.288;2023-04-16T07:58:21;101971.13;;;12.68;100.00
42587;BME280;28216;53.362;-6.288;2023-04-16T08:00:49;101972.06;;;12.77;100.00
42587;BME280;28216;53.362;-6.288;2023-04-16T08:03:18;101975.66;;;12.86;100.00
42587;BME280;28216;53.362;-6.288;2023-04-16T08:05:43;101972.28;;;12.93;100.00
42587;BME280;28216;53.362;-6.288;2023-04-16T08:08:09;101975.31;;;12.98;100.00
42587;BME280;28216;53.362;-6.288;2023-04-16T08:10:34;101974.59;;;13.06;100.00
42587;BME280;28216;53.362;-6.288;2023-04-16T08:13:00;101977.75;;;13.10;100.00
42587;BME280;28216;53.362;-6.288;2023-04-16T08:15:27;101991.88;;;13.18;100.00
42587;BME280;28216;53.362;-6.288;2023-04-16T08:17:52;101983.53;;;13.23;100.00
42587;BME280;28216;53.362;-6.288;2023-04-16T08:20:37;101983.41;;;13.24;100.00
42587;BME280;28216;53.362;-6.288;2023-04-16T08:23:03;101989.59;;;13.33;100.00
42587;BME280;28216;53.362;-6.288;2023-04-16T08:25:28;101984.84;;;13.36;100.00
42587;BME280;28216;53.362;-6.288;2023-04-16T08:27:54;101983.47;;;13.42;100.00
42587;BME280;28216;53.362;-6.288;2023-04-16T08:30:20;101986.34;;;13.49;100.00
42587;BME280;28216;53.362;-6.288;2023-04-16T08:32:49;101987.84;;;13.51;100.00
42587;BME280;28216;53.362;-6.288;2023-04-16T08:35:14;101988.06;;;13.58;100.00
42587;BME280;28216;53.362;-6.288;2023-04-16T08:37:40;101992.22;;;13.60;100.00
42587;BME280;28216;53.362;-6.288;2023-04-16T08:40:06;101993.44;;;13.66;100.00
42587;BME280;28216;53.362;-6.288;2023-04-16T08:42:33;101996.75;;;13.68;100.00
42587;BME280;28216;53.362;-6.288;2023-04-16T08:45:07;101992.16;;;13.70;100.00
42587;BME280;28216;53.362;-6.288;2023-04-16T08:47:35;101989.38;;;13.72;100.00
42587;BME280;28216;53.362;-6.288;2023-04-16T08:50:04;101991.09;;;13.81;100.00
42587;BME280;28216;53.362;-6.288;2023-04-16T08:52:30;101985.09;;;13.88;100.00
42587;BME280;28216;53.362;-6.288;2023-04-16T08:55:11;101996.91;;;14.02;100.00
42587;BME280;28216;53.362;-6.288;2023-04-16T08:57:49;102006.50;;;14.21;100.00
42587;BME280;28216;53.362;-6.288;2023-04-16T09:00:17;102004.50;;;14.41;100.00
42587;BME280;28216;53.362;-6.288;2023-04-16T09:02:43;102005.63;;;14.56;100.00
42587;BME280;28216;53.362;-6.288;2023-04-16T09:05:09;102001.75;;;14.68;100.00
42587;BME280;28216;53.362;-6.288;2023-04-16T09:07:35;102006.59;;;14.81;100.00
42587;BME280;28216;53.362;-6.288;2023-04-16T09:10:02;102013.44;;;14.91;100.00
42587;BME280;28216;53.362;-6.288;2023-04-16T09:12:29;102014.94;;;14.94;100.00
42587;BME280;28216;53.362;-6.288;2023-04-16T09:14:55;102012.34;;;15.02;100.00
42587;BME280;28216;53.362;-6.288;2023-04-16T09:17:21;102007.25;;;15.09;100.00
42587;BME280;28216;53.362;-6.288;2023-04-16T09:19:47;102001.50;;;15.13;100.00
42587;BME280;28216;53.362;-6.288;2023-04-16T09:22:12;102007.97;;;15.19;100.00
42587;BME280;28216;53.362;-6.288;2023-04-16T09:24:38;102011.78;;;15.24;100.00
42587;BME280;28216;53.362;-6.288;2023-04-16T09:27:04;102011.31;;;15.29;100.00
42587;BME280;28216;53.362;-6.288;2023-04-16T09:29:35;102012.97;;;15.30;100.00
42587;BME280;28216;53.362;-6.288;2023-04-16T09:32:08;102020.25;;;15.36;100.00
42587;BME280;28216;53.362;-6.288;2023-04-16T09:34:53;102019.44;;;15.36;100.00
42587;BME280;28216;53.362;-6.288;2023-04-16T09:37:19;102015.81;;;15.45;100.00
42587;BME280;28216;53.362;-6.288;2023-04-16T09:39:52;102029.53;;;15.48;100.00
42587;BME280;28216;53.362;-6.288;2023-04-16T09:42:30;102024.75;;;15.44;100.00
42587;BME280;28216;53.362;-6.288;2023-04-16T09:44:59;102031.34;;;15.48;100.00
42587;BME280;28216;53.362;-6.288;2023-04-16T09:47:37;102031.53;;;15.46;100.00
42587;BME280;28216;53.362;-6.288;2023-04-16T09:50:04;102026.72;;;15.42;100.00
42587;BME280;28216;53.362;-6.288;2023-04-16T09:52:30;102040.78;;;15.50;100.00
42587;BME280;28216;53.362;-6.288;2023-04-16T09:54:55;102039.47;;;15.54;100.00
42587;BME280;28216;53.362;-6.288;2023-04-16T09:57:22;102038.47;;;15.55;100.00
42587;BME280;28216;53.362;-6.288;2023-04-16T09:59:52;102040.84;;;15.58;100.00
42587;BME280;28216;53.362;-6.288;2023-04-16T10:02:18;102042.78;;;15.56;100.00
42587;BME280;28216;53.362;-6.288;2023-04-16T10:04:49;102034.72;;;15.58;100.00
42587;BME280;28216;53.362;-6.288;2023-04-16T10:07:15;102041.38;;;15.62;100.00
42587;BME280;28216;53.362;-6.288;2023-04-16T10:09:40;102048.59;;;15.60;100.00
42587;BME280;28216;53.362;-6.288;2023-04-16T10:12:06;102053.78;;;15.62;100.00
42587;BME280;28216;53.362;-6.288;2023-04-16T10:14:32;102051.13;;;15.62;100.00
42587;BME280;28216;53.362;-6.288;2023-04-16T10:16:59;102047.66;;;15.61;100.00
42587;BME280;28216;53.362;-6.288;2023-04-16T10:19:26;102054.78;;;15.69;100.00
42587;BME280;28216;53.362;-6.288;2023-04-16T10:21:52;102051.81;;;15.72;100.00
42587;BME280;28216;53.362;-6.288;2023-04-16T10:24:19;102052.16;;;15.77;100.00
42587;BME280;28216;53.362;-6.288;2023-04-16T10:26:46;102064.06;;;15.81;100.00
42587;BME280;28216;53.362;-6.288;2023-04-16T10:29:13;102061.25;;;15.82;100.00
42587;BME280;28216;53.362;-6.288;2023-04-16T10:31:40;102058.94;;;15.87;100.00
42587;BME280;28216;53.362;-6.288;2023-04-16T10:34:07;102058.94;;;15.87;100.00
42587;BME280;28216;53.362;-6.288;2023-04-16T10:36:36;102057.97;;;15.88;100.00
42587;BME280;28216;53.362;-6.288;2023-04-16T10:39:02;102057.97;;;15.88;100.00
42587;BME280;28216;53.362;-6.288;2023-04-16T10:41:28;102060.28;;;15.92;100.00
42587;BME280;28216;53.362;-6.288;2023-04-16T10:44:07;102061.09;;;15.92;100.00
42587;BME280;28216;53.362;-6.288;2023-04-16T10:46:41;102054.00;;;15.93;100.00
42587;BME280;28216;53.362;-6.288;2023-04-16T10:49:22;102064.59;;;15.93;100.00
42587;BME280;28216;53.362;-6.288;2023-04-16T10:51:59;102053.84;;;15.94;100.00
42587;BME280;28216;53.362;-6.288;2023-04-16T10:54:30;102063.25;;;15.97;100.00
42587;BME280;28216;53.362;-6.288;2023-04-16T10:56:57;102060.13;;;15.93;100.00
42587;BME280;28216;53.362;-6.288;2023-04-16T10:59:24;102055.34;;;15.97;100.00
42587;BME280;28216;53.362;-6.288;2023-04-16T11:01:59;102064.94;;;16.06;100.00
42587;BME280;28216;53.362;-6.288;2023-04-16T11:04:33;102062.78;;;16.17;100.00
42587;BME280;28216;53.362;-6.288;2023-04-16T11:07:32;102057.16;;;16.12;100.00
42587;BME280;28216;53.362;-6.288;2023-04-16T11:09:59;102055.03;;;16.32;100.00
42587;BME280;28216;53.362;-6.288;2023-04-16T11:12:41;102048.13;;;16.39;100.00
42587;BME280;28216;53.362;-6.288;2023-04-16T11:15:11;102051.75;;;16.55;100.00
42587;BME280;28216;53.362;-6.288;2023-04-16T11:17:45;102054.56;;;16.69;100.00
42587;BME280;28216;53.362;-6.288;2023-04-16T11:20:25;102053.19;;;16.90;100.00
42587;BME280;28216;53.362;-6.288;2023-04-16T11:22:52;102047.50;;;17.09;100.00
42587;BME280;28216;53.362;-6.288;2023-04-16T11:25:20;102047.97;;;17.29;100.00
42587;BME280;28216;53.362;-6.288;2023-04-16T11:27:49;102044.25;;;17.46;100.00
42587;BME280;28216;53.362;-6.288;2023-04-16T11:30:16;102043.50;;;17.68;100.00
42587;BME280;28216;53.362;-6.288;2023-04-16T11:32:43;102045.94;;;17.78;100.00
42587;BME280;28216;53.362;-6.288;2023-04-16T11:44:27;102046.06;;;18.30;100.00
42587;BME280;28216;53.362;-6.288;2023-04-16T11:46:54;102045.25;;;18.30;100.00
42587;BME280;28216;53.362;-6.288;2023-04-16T11:49:29;102041.69;;;18.37;100.00
42587;BME280;28216;53.362;-6.288;2023-04-16T11:51:56;102045.34;;;18.59;100.00
42587;BME280;28216;53.362;-6.288;2023-04-16T11:54:23;102044.34;;;18.60;100.00
42587;BME280;28216;53.362;-6.288;2023-04-16T11:56:50;102043.75;;;18.50;100.00
42587;BME280;28216;53.362;-6.288;2023-04-16T11:59:21;102046.44;;;18.27;100.00
42587;BME280;28216;53.362;-6.288;2023-04-16T12:01:53;102038.53;;;18.19;100.00
42587;BME280;28216;53.362;-6.288;2023-04-16T12:04:28;102044.66;;;18.20;100.00
42587;BME280;28216;53.362;-6.288;2023-04-16T12:07:42;102039.94;;;18.30;100.00
42587;BME280;28216;53.362;-6.288;2023-04-16T12:14:10;102038.84;;;18.39;100.00
42587;BME280;28216;53.362;-6.288;2023-04-16T12:16:37;102035.38;;;18.38;100.00
42587;BME280;28216;53.362;-6.288;2023-04-16T12:19:04;102038.69;;;18.40;100.00
42587;BME280;28216;53.362;-6.288;2023-04-16T12:21:59;102028.66;;;18.28;100.00
42587;BME280;28216;53.362;-6.288;2023-04-16T12:24:24;102035.91;;;18.34;100.00
42587;BME280;28216;53.362;-6.288;2023-04-16T12:26:52;102029.78;;;18.33;100.00
42587;BME280;28216;53.362;-6.288;2023-04-16T12:29:25;102032.72;;;18.38;100.00
42587;BME280;28216;53.362;-6.288;2023-04-16T12:31:52;102040.16;;;18.43;100.00
42587;BME280;28216;53.362;-6.288;2023-04-16T12:34:24;102037.59;;;18.50;100.00
42587;BME280;28216;53.362;-6.288;2023-04-16T12:37:06;102046.66;;;18.63;100.00
42587;BME280;28216;53.362;-6.288;2023-04-16T12:39:33;102041.91;;;18.73;100.00
42587;BME280;28216;53.362;-6.288;2023-04-16T12:41:59;102035.78;;;18.88;100.00
42587;BME280;28216;53.362;-6.288;2023-04-16T12:44:25;102035.59;;;19.04;100.00
42587;BME280;28216;53.362;-6.288;2023-04-16T12:46:52;102032.94;;;19.04;100.00
42587;BME280;28216;53.362;-6.288;2023-04-16T12:49:17;102037.63;;;19.02;100.00